Time;durP1;ratioP1;P1;durP2;ratioP2;P2;SDS_P1;SDS_P2;PMS_P1;PMS_P2;Temp;Humidity;BMP_temperature;BMP_pressure;BME280_temperature;BME280_humidity;BME280_pressure;Samples;Min_cycle;Max_cycle;Signal;HPM_P1;HPM_P2
2022/05/16 00:02:03;;;;;;;10.13;5.07;;;10.90;99.90;;;;;;5031357;28;20709;-84
2022/05/16 00:04:29;;;;;;;10.77;5.30;;;;;;;;;;5030727;28;20473;-84
2022/05/16 00:06:55;;;;;;;9.07;5.10;;;;;;;;;;5031316;28;20385;-84
2022/05/16 00:09:21;;;;;;;10.48;5.22;;;;;;;;;;5030971;28;20385;-84
2022/05/16 00:11:47;;;;;;;10.70;5.20;;;;;;;;;;5030688;28;20378;-84
2022/05/16 00:14:12;;;;;;;9.73;4.73;;;;;;;;;;5030914;28;20370;-84
2022/05/16 00:16:39;;;;;;;9.03;5.20;;;;;;;;;;5030858;28;20401;-83
2022/05/16 00:19:05;;;;;;;9.82;4.72;;;;;;;;;;5030931;28;20380;-83
2022/05/16 00:21:31;;;;;;;11.70;5.65;;;;;;;;;;5030842;28;20374;-84
2022/05/16 00:23:57;;;;;;;7.07;4.85;;;10.40;99.90;;;;;;5012801;28;20405;-83
2022/05/16 00:26:22;;;;;;;12.05;5.50;;;10.40;99.90;;;;;;5030401;28;20857;-84
2022/05/16 00:28:48;;;;;;;8.57;5.00;;;10.30;99.90;;;;;;5030715;28;20377;-83
2022/05/16 00:31:14;;;;;;;10.63;5.27;;;10.30;99.90;;;;;;5012902;28;20443;-83
2022/05/16 00:33:41;;;;;;;8.75;4.80;;;10.20;99.90;;;;;;5030563;28;20464;-83
2022/05/16 00:36:07;;;;;;;9.02;4.90;;;10.20;99.90;;;;;;5013025;28;20413;-85
2022/05/16 00:38:32;;;;;;;9.73;4.80;;;10.10;99.90;;;;;;5012949;28;20875;-84
2022/05/16 00:41:01;;;;;;;9.85;4.82;;;10.00;99.90;;;;;;5030532;28;20476;-85
2022/05/16 00:43:55;;;;;;;8.93;5.05;;;10.00;99.90;;;;;;5030357;28;20388;-84
2022/05/16 00:46:22;;;;;;;6.60;4.38;;;9.90;99.90;;;;;;5030398;28;20713;-83
2022/05/16 00:48:48;;;;;;;9.53;4.80;;;9.90;99.90;;;;;;5030630;28;20371;-85
2022/05/16 00:51:38;;;;;;;10.40;5.40;;;9.90;99.90;;;;;;5030631;28;20377;-85
2022/05/16 00:54:21;;;;;;;7.15;4.57;;;9.90;99.90;;;;;;5011506;28;20443;-84
2022/05/16 00:56:51;;;;;;;9.40;4.90;;;10.00;99.90;;;;;;5012614;28;20377;-84
2022/05/16 00:59:18;;;;;;;12.43;5.82;;;9.80;99.90;;;;;;5030088;28;20457;-83
2022/05/16 01:07:12;;;;;;;12.00;5.45;;;9.80;99.90;;;;;;5030260;28;20427;-84
2022/05/16 01:09:37;;;;;;;8.00;5.23;;;9.80;99.90;;;;;;5012275;28;20420;-84
2022/05/16 01:12:04;;;;;;;9.90;5.32;;;9.80;99.90;;;;;;5029901;28;20392;-85
2022/05/16 01:14:55;;;;;;;10.45;5.82;;;9.70;99.90;;;;;;5012358;28;20392;-84
2022/05/16 01:17:21;;;;;;;11.13;5.90;;;9.70;99.90;;;;;;5029759;28;20394;-84
2022/05/16 01:19:50;;;;;;;10.15;5.40;;;9.20;99.90;;;;;;5030171;28;20373;-84
2022/05/16 01:22:23;;;;;;;9.68;5.60;;;;;;;;;;5029942;28;20374;-84
2022/05/16 01:24:49;;;;;;;9.32;5.18;;;;;;;;;;5029890;28;20372;-84
2022/05/16 01:27:15;;;;;;;11.90;5.55;;;;;;;;;;5029712;28;20389;-84
2022/05/16 01:29:42;;;;;;;8.90;5.07;;;;;;;;;;5012364;28;20906;-83
2022/05/16 01:32:10;;;;;;;8.77;5.13;;;;;;;;;;5012219;28;20378;-84
2022/05/16 01:34:36;;;;;;;8.70;5.10;;;;;;;;;;5029726;28;20427;-83
2022/05/16 01:37:02;;;;;;;11.23;5.60;;;;;;;;;;5029841;28;20975;-82
2022/05/16 01:39:28;;;;;;;10.80;5.50;;;;;;;;;;5029899;28;20729;-83
2022/05/16 01:41:54;;;;;;;9.07;5.18;;;;;;;;;;5029470;28;20377;-82
2022/05/16 01:44:22;;;;;;;11.35;5.22;;;;;;;;;;5011674;28;20474;-83
2022/05/16 01:46:48;;;;;;;12.38;6.15;;;;;;;;;;5029938;28;20452;-82
2022/05/16 01:49:14;;;;;;;12.18;5.68;;;;;;;;;;5029919;28;20453;-83
2022/05/16 01:51:41;;;;;;;12.13;6.22;;;;;;;;;;5029943;28;20429;-82
2022/05/16 01:54:07;;;;;;;11.17;5.60;;;;;;;;;;5029049;28;20429;-82
2022/05/16 01:56:34;;;;;;;8.30;5.03;;;;;;;;;;5029843;28;20382;-83
2022/05/16 01:59:01;;;;;;;10.68;5.40;;;;;;;;;;5011928;28;20495;-83
2022/05/16 02:01:28;;;;;;;10.07;5.43;;;;;;;;;;5012065;28;20378;-83
2022/05/16 02:03:54;;;;;;;11.07;5.65;;;;;;;;;;5011757;28;20397;-82
2022/05/16 02:06:20;;;;;;;12.27;5.53;;;;;;;;;;5029727;28;20808;-82
2022/05/16 02:08:48;;;;;;;9.40;5.22;;;;;;;;;;5012179;28;20366;-83
2022/05/16 02:11:14;;;;;;;10.07;5.35;;;;;;;;;;5029484;28;20381;-83
2022/05/16 02:13:40;;;;;;;11.05;5.70;;;;;;;;;;5032183;28;20366;-82
2022/05/16 02:16:07;;;;;;;11.32;5.65;;;;;;;;;;5033322;28;20444;-83
2022/05/16 02:18:34;;;;;;;9.30;5.28;;;;;;;;;;5015490;28;20736;-82
2022/05/16 02:26:29;;;;;;;11.82;5.85;;;;;;;;;;5033031;28;20372;-84
2022/05/16 02:28:55;;;;;;;10.20;5.20;;;;;;;;;;5015354;28;20381;-83
2022/05/16 02:31:22;;;;;;;10.60;5.70;;;;;;;;;;5032914;28;20377;-84
2022/05/16 02:33:48;;;;;;;13.68;6.05;;;;;;;;;;5032732;28;20388;-83
2022/05/16 02:36:15;;;;;;;10.73;5.53;;;;;;;;;;5033023;28;20365;-83
2022/05/16 02:38:41;;;;;;;10.32;5.80;;;;;;;;;;5015222;28;20827;-84
2022/05/16 02:41:07;;;;;;;9.60;5.40;;;;;;;;;;5032699;28;20370;-82
2022/05/16 02:43:33;;;;;;;10.63;4.97;;;;;;;;;;5014535;28;20387;-82
2022/05/16 02:45:59;;;;;;;11.45;5.38;;;;;;;;;;5032824;28;20369;-82
2022/05/16 02:48:25;;;;;;;11.95;5.32;;;;;;;;;;5032532;28;20735;-83
2022/05/16 02:50:51;;;;;;;10.30;5.55;;;;;;;;;;5014536;28;20392;-82
2022/05/16 02:53:17;;;;;;;11.02;5.70;;;;;;;;;;5032131;28;20388;-82
2022/05/16 02:55:44;;;;;;;9.50;5.13;;;;;;;;;;5014691;28;20914;-83
2022/05/16 02:58:10;;;;;;;11.85;5.55;;;;;;;;;;5032361;28;20793;-83
2022/05/16 03:00:37;;;;;;;11.77;5.30;;;;;;;;;;5014872;28;20378;-83
2022/05/16 03:03:03;;;;;;;12.80;6.07;;;;;;;;;;5014380;28;20456;-84
2022/05/16 03:05:29;;;;;;;10.48;5.72;;;;;;;;;;5014951;28;20374;-83
2022/05/16 03:07:55;;;;;;;8.98;5.13;;;;;;;;;;5014301;28;20441;-84
2022/05/16 03:10:22;;;;;;;10.60;5.18;;;;;;;;;;5032410;28;20368;-83
2022/05/16 03:12:49;;;;;;;9.48;5.13;;;;;;;;;;5014047;28;20381;-83
2022/05/16 03:15:15;;;;;;;8.50;5.00;;;;;;;;;;5032506;28;20373;-83
2022/05/16 03:17:42;;;;;;;8.30;5.20;;;;;;;;;;5014221;28;20941;-82
2022/05/16 03:20:09;;;;;;;10.63;5.40;;;;;;;;;;5014517;28;20389;-83
2022/05/16 03:22:35;;;;;;;9.43;4.90;;;;;;;;;;5032224;28;20457;-83
2022/05/16 03:25:02;;;;;;;12.60;5.47;;;;;;;;;;5031026;28;20704;-84
2022/05/16 03:27:28;;;;;;;10.95;5.15;;;;;;;;;;5031466;28;20440;-83
2022/05/16 03:29:55;;;;;;;11.73;5.88;;;;;;;;;;5014366;28;20373;-82
2022/05/16 03:32:21;;;;;;;10.07;5.05;;;;;;;;;;5031611;28;20451;-83
2022/05/16 03:34:53;;;;;;;10.73;5.15;;;;;;;;;;5031775;28;20405;-83
2022/05/16 03:37:18;;;;;;;10.50;5.28;;;;;;;;;;5031885;28;20420;-83
2022/05/16 03:42:33;;;;;;;11.48;5.50;;;;;;;;;;5031606;28;20384;-85
2022/05/16 03:44:59;;;;;;;9.25;5.72;;;;;;;;;;5014030;28;20481;-84
2022/05/16 03:47:25;;;;;;;14.60;5.60;;;;;;;;;;5013640;28;20860;-84
2022/05/16 03:49:52;;;;;;;19.63;5.85;;;;;;;;;;5031737;28;20392;-84
2022/05/16 03:52:18;;;;;;;11.63;5.63;;;;;;;;;;5031472;28;20890;-83
2022/05/16 03:54:44;;;;;;;10.47;5.17;;;;;;;;;;5031107;28;20382;-83
2022/05/16 03:57:10;;;;;;;9.23;4.90;;;;;;;;;;5031359;28;20550;-82
2022/05/16 03:59:36;;;;;;;10.20;5.47;;;;;;;;;;5013400;28;20374;-82
2022/05/16 04:02:03;;;;;;;10.02;5.50;;;;;;;;;;5031343;28;20370;-83
2022/05/16 04:04:29;;;;;;;10.55;5.25;;;;;;;;;;5013289;28;20374;-83
2022/05/16 04:06:55;;;;;;;7.95;4.55;;;;;;;;;;5031220;28;20369;-82
2022/05/16 04:09:21;;;;;;;8.43;4.80;;;;;;;;;;5031411;28;20365;-83
2022/05/16 04:11:47;;;;;;;13.10;5.40;;;;;;;;;;5031242;28;20370;-83
2022/05/16 04:14:13;;;;;;;8.57;4.45;;;;;;;;;;5030330;28;20377;-83
2022/05/16 04:16:39;;;;;;;9.80;4.75;;;;;;;;;;5013344;28;20381;-84
2022/05/16 04:19:07;;;;;;;8.77;4.60;;;;;;;;;;5013179;28;20393;-83
2022/05/16 04:21:33;;;;;;;9.38;5.20;;;;;;;;;;5013452;28;20778;-84
2022/05/16 04:24:01;;;;;;;9.75;4.45;;;;;;;;;;5013056;28;20377;-83
2022/05/16 04:26:27;;;;;;;10.60;4.55;;;;;;;;;;5031023;28;20393;-85
2022/05/16 04:28:53;;;;;;;8.55;4.40;;;;;;;;;;5030732;28;20407;-83
2022/05/16 04:31:18;;;;;;;7.65;4.50;;;;;;;;;;5030802;28;20457;-82
2022/05/16 04:33:44;;;;;;;8.63;4.47;;;;;;;;;;5013053;28;20759;-83
2022/05/16 04:36:10;;;;;;;10.63;4.90;;;;;;;;;;5030573;28;20373;-83
2022/05/16 04:38:36;;;;;;;19.47;5.50;;;;;;;;;;5030628;28;20433;-84
2022/05/16 04:43:47;;;;;;;7.55;3.78;;;12.30;99.90;;;;;;5030213;28;20447;-83
2022/05/16 04:46:13;;;;;;;26.65;5.60;;;13.20;99.90;;;;;;5030753;28;20377;-84
2022/05/16 04:48:38;;;;;;;6.88;4.05;;;12.40;99.90;;;;;;5031262;28;20408;-84
2022/05/16 04:51:04;;;;;;;7.13;4.10;;;12.40;99.90;;;;;;5013451;28;20413;-83
2022/05/16 04:53:30;;;;;;;9.05;3.95;;;12.90;99.90;;;;;;5029630;28;20786;-83
2022/05/16 04:55:56;;;;;;;6.80;4.00;;;12.70;99.90;;;;;;5038621;28;20480;-83
2022/05/16 04:58:22;;;;;;;7.03;3.90;;;12.70;99.90;;;;;;5022763;28;20395;-83
2022/05/16 05:00:48;;;;;;;11.10;4.05;;;12.90;99.90;;;;;;5040558;28;20740;-82
2022/05/16 05:03:13;;;;;;;9.27;3.90;;;13.20;99.90;;;;;;5025669;28;20378;-85
2022/05/16 05:05:39;;;;;;;8.10;3.90;;;13.20;99.90;;;;;;5041045;28;20387;-83
2022/05/16 05:08:05;;;;;;;8.67;3.93;;;13.30;99.90;;;;;;5039244;28;20376;-83
2022/05/16 05:16:09;;;;;;;7.85;3.58;;;13.30;99.90;;;;;;5038178;28;20392;-82
2022/05/16 05:18:35;;;;;;;63.65;9.43;;;13.50;99.90;;;;;;5039159;28;20391;-84
2022/05/16 05:21:01;;;;;;;8.65;4.10;;;13.60;99.90;;;;;;5020974;28;20462;-83
2022/05/16 05:23:26;;;;;;;8.35;3.88;;;13.80;99.90;;;;;;5039322;28;20779;-87
2022/05/16 05:25:52;;;;;;;18.47;4.83;;;13.80;99.90;;;;;;5041294;28;20414;-85
2022/05/16 05:28:18;;;;;;;8.20;4.13;;;13.90;99.90;;;;;;5040866;28;20391;-85
2022/05/16 05:30:44;;;;;;;23.45;5.00;;;14.10;99.90;;;;;;5021155;28;20449;-82
2022/05/16 05:33:10;;;;;;;13.00;4.55;;;14.30;99.90;;;;;;5038494;28;20466;-83
2022/05/16 05:35:35;;;;;;;10.55;4.25;;;14.40;99.90;;;;;;5040254;28;20784;-84
2022/05/16 05:38:01;;;;;;;8.87;4.27;;;14.50;99.90;;;;;;5019830;28;20400;-83
2022/05/16 05:40:27;;;;;;;11.50;4.15;;;14.60;99.90;;;;;;5039698;28;20368;-84
2022/05/16 05:42:52;;;;;;;9.10;3.60;;;14.70;99.90;;;;;;5021498;28;20504;-82
2022/05/16 05:45:18;;;;;;;9.43;3.63;;;14.70;99.90;;;;;;5037883;28;20385;-83
2022/05/16 05:47:44;;;;;;;9.75;3.90;;;14.90;99.90;;;;;;5041643;28;20380;-83
2022/05/16 05:50:10;;;;;;;7.05;3.70;;;15.00;99.90;;;;;;5043213;28;20375;-83
2022/05/16 05:52:36;;;;;;;9.02;3.75;;;15.10;99.90;;;;;;5042520;28;20372;-84
2022/05/16 05:55:03;;;;;;;6.72;3.58;;;15.20;99.90;;;;;;5025663;28;20383;-83
2022/05/16 05:57:28;;;;;;;7.47;3.47;;;15.30;99.90;;;;;;5025460;28;20446;-84
2022/05/16 05:59:56;;;;;;;8.38;3.72;;;15.30;99.90;;;;;;5042949;28;20368;-84
2022/05/16 06:02:23;;;;;;;6.93;3.80;;;15.40;99.90;;;;;;5026106;28;20380;-83
2022/05/16 06:04:49;;;;;;;8.25;3.95;;;15.50;99.90;;;;;;5043121;28;20732;-82
2022/05/16 06:07:15;;;;;;;8.80;3.58;;;15.60;99.90;;;;;;5042610;28;20368;-82
2022/05/16 06:09:41;;;;;;;8.43;3.30;;;15.90;99.90;;;;;;5044010;28;20380;-84
2022/05/16 06:12:08;;;;;;;9.13;3.70;;;16.00;99.90;;;;;;5024635;28;20396;-83
2022/05/16 06:14:34;;;;;;;8.88;3.88;;;16.10;99.90;;;;;;5041853;28;20379;-82
2022/05/16 06:16:59;;;;;;;6.87;3.83;;;16.20;99.90;;;;;;5027032;28;20903;-83
2022/05/16 06:19:26;;;;;;;8.45;3.33;;;16.40;99.90;;;;;;5025469;28;20379;-85
2022/05/16 06:21:52;;;;;;;6.47;3.72;;;16.60;99.90;;;;;;5025137;28;20413;-82
2022/05/16 06:27:03;;;;;;;10.32;3.83;;;17.10;99.90;;;;;;5043933;28;20363;-84
2022/05/16 06:29:29;;;;;;;9.90;3.53;;;17.30;99.90;;;;;;5024588;28;20393;-86
2022/05/16 06:31:55;;;;;;;8.33;3.57;;;17.60;99.90;;;;;;5025912;28;20429;-86
2022/05/16 06:34:20;;;;;;;6.22;3.08;;;17.90;99.90;;;;;;5043750;28;20729;-84
2022/05/16 06:36:47;;;;;;;18.63;4.30;;;18.20;99.90;;;;;;5043636;28;20378;-86
2022/05/16 06:39:13;;;;;;;10.32;3.28;;;18.70;99.90;;;;;;5043182;28;20387;-85
2022/05/16 06:41:40;;;;;;;7.70;2.97;;;19.30;99.90;;;;;;5043817;28;20404;-85
2022/05/16 06:44:05;;;;;;;6.68;2.92;;;19.90;99.80;;;;;;5040997;28;20405;-87
2022/05/16 06:46:31;;;;;;;5.13;2.80;;;;;;;;;;5042983;28;20371;-85
2022/05/16 06:49:00;;;;;;;8.60;3.38;;;20.80;98.10;;;;;;5025520;28;20373;-85
2022/05/16 06:51:26;;;;;;;8.80;3.28;;;21.10;99.90;;;;;;5047240;28;20388;-82
2022/05/16 06:53:51;;;;;;;7.43;3.00;;;21.10;95.60;;;;;;5043402;28;20365;-82
2022/05/16 06:56:18;;;;;;;7.20;2.90;;;21.00;93.60;;;;;;5025602;28;20412;-84
2022/05/16 06:58:44;;;;;;;7.75;3.05;;;;;;;;;;5025816;28;20422;-85
2022/05/16 07:01:09;;;;;;;8.70;3.30;;;21.10;99.90;;;;;;5042960;28;20385;-83
2022/05/16 07:03:35;;;;;;;16.70;4.20;;;21.20;99.90;;;;;;5043183;28;20377;-85
2022/05/16 07:06:01;;;;;;;20.80;4.63;;;21.50;94.20;;;;;;5023584;28;20798;-84
2022/05/16 07:08:27;;;;;;;8.88;3.42;;;;;;;;;;5026453;28;20386;-86
2022/05/16 07:10:53;;;;;;;8.52;3.17;;;21.70;92.80;;;;;;5043065;28;20814;-85
2022/05/16 07:13:18;;;;;;;6.80;3.30;;;21.80;92.70;;;;;;5025241;28;20378;-84
2022/05/16 07:15:45;;;;;;;8.10;3.28;;;21.50;92.20;;;;;;5022653;28;20387;-84
2022/05/16 07:18:11;;;;;;;7.93;3.22;;;21.30;92.90;;;;;;5020577;28;20831;-81
2022/05/16 07:20:38;;;;;;;10.48;3.22;;;21.30;92.60;;;;;;5017214;28;20380;-85
2022/05/16 07:23:04;;;;;;;9.85;3.65;;;21.30;92.70;;;;;;5025439;28;20395;-85
2022/05/16 07:25:32;;;;;;;7.23;3.00;;;21.50;92.50;;;;;;5041996;28;20369;-84
2022/05/16 07:27:59;;;;;;;7.80;3.20;;;21.70;92.60;;;;;;5020885;28;20416;-85
2022/05/16 07:30:34;;;;;;;13.13;4.15;;;22.00;93.00;;;;;;5042948;28;20426;-86
2022/05/16 07:33:01;;;;;;;14.65;3.60;;;22.30;92.70;;;;;;5044690;28;20380;-85
2022/05/16 07:35:30;;;;;;;26.25;4.72;;;22.40;92.00;;;;;;5023353;28;20378;-83
2022/05/16 07:37:56;;;;;;;28.85;5.78;;;22.50;91.00;;;;;;5025787;28;20403;-84
2022/05/16 07:40:25;;;;;;;7.60;3.00;;;22.60;92.50;;;;;;5043036;28;20387;-85
2022/05/16 07:42:52;;;;;;;7.33;3.07;;;22.50;90.10;;;;;;5023941;28;20400;-83
2022/05/16 07:45:19;;;;;;;9.38;3.05;;;22.20;90.40;;;;;;5043452;28;20451;-84
2022/05/16 07:47:51;;;;;;;7.97;3.03;;;21.90;91.00;;;;;;5040307;28;20464;-85
2022/05/16 07:50:17;;;;;;;10.60;3.53;;;21.90;91.30;;;;;;5042920;28;20829;-84
2022/05/16 07:52:44;;;;;;;7.43;3.10;;;22.10;91.00;;;;;;5024159;28;20374;-84
2022/05/16 07:55:10;;;;;;;7.53;3.03;;;22.20;90.20;;;;;;5024944;28;20412;-84
2022/05/16 07:57:36;;;;;;;11.68;3.50;;;22.20;90.40;;;;;;5044394;28;20405;-84
2022/05/16 08:00:02;;;;;;;8.23;3.10;;;22.10;90.40;;;;;;5040322;28;20400;-84
2022/05/16 08:02:28;;;;;;;9.70;3.25;;;22.30;90.70;;;;;;5040376;28;20365;-84
2022/05/16 08:04:53;;;;;;;9.95;2.90;;;22.50;90.40;;;;;;5041064;28;20505;-83
2022/05/16 08:07:19;;;;;;;7.93;2.90;;;22.60;89.50;;;;;;5041913;28;20389;-86
2022/05/16 08:12:32;;;;;;;5.80;2.63;;;22.80;87.00;;;;;;5041347;28;20388;-85
2022/05/16 08:15:00;;;;;;;10.57;3.30;;;22.50;89.10;;;;;;5021896;28;20444;-83
2022/05/16 08:17:25;;;;;;;8.70;3.00;;;22.50;88.00;;;;;;5024588;28;20407;-84
2022/05/16 08:19:51;;;;;;;8.50;2.97;;;22.60;87.30;;;;;;5022786;28;20747;-84
2022/05/16 08:22:17;;;;;;;7.83;2.87;;;22.60;88.20;;;;;;5040935;28;20368;-85
2022/05/16 08:24:44;;;;;;;6.10;2.43;;;22.70;87.90;;;;;;5023359;28;20374;-84
2022/05/16 08:27:10;;;;;;;12.68;3.28;;;22.80;89.70;;;;;;5040251;28;20408;-83
2022/05/16 08:29:35;;;;;;;7.03;3.03;;;22.90;87.70;;;;;;5040912;28;20403;-84
2022/05/16 08:32:03;;;;;;;8.00;2.85;;;;;;;;;;5023450;28;20526;-85
2022/05/16 08:34:30;;;;;;;7.07;2.70;;;23.10;87.70;;;;;;5039521;28;20856;-86
2022/05/16 08:39:53;;;;;;;5.80;2.58;;;23.40;85.80;;;;;;5041975;28;20371;-86
2022/05/16 08:42:45;;;;;;;6.63;2.80;;;23.50;84.40;;;;;;5024359;28;20386;-85
2022/05/16 08:45:38;;;;;;;7.75;2.78;;;23.60;86.80;;;;;;5002765;28;20739;-84
2022/05/16 08:48:24;;;;;;;15.63;3.20;;;23.40;83.70;;;;;;5041257;28;20376;-84
2022/05/16 08:50:55;;;;;;;6.60;2.58;;;;;;;;;;5038076;28;20458;-82
2022/05/16 08:53:25;;;;;;;8.82;3.13;;;23.50;99.90;;;;;;5022020;28;20471;-85
2022/05/16 08:55:55;;;;;;;8.80;2.83;;;23.60;99.90;;;;;;5040586;28;20820;-84
2022/05/16 08:58:34;;;;;;;39.33;5.68;;;23.80;99.90;;;;;;5039794;28;20399;-84
2022/05/16 09:01:08;;;;;;;10.35;3.13;;;;;;;;;;5040493;28;20394;-85
2022/05/16 09:03:39;;;;;;;11.43;3.22;;;;;;;;;;5040147;28;20374;-84
2022/05/16 09:06:24;;;;;;;8.52;3.05;;;;;;;;;;5039494;28;20358;-87
2022/05/16 09:08:56;;;;;;;9.63;3.50;;;;;;;;;;5039260;28;20370;-84
2022/05/16 09:11:31;;;;;;;7.88;2.80;;;;;;;;;;5039139;28;20391;-86
2022/05/16 09:14:03;;;;;;;8.57;2.97;;;;;;;;;;5040321;28;20373;-85
2022/05/16 09:16:37;;;;;;;8.10;2.87;;;;;;;;;;5039135;28;20369;-85
2022/05/16 09:19:18;;;;;;;7.43;3.17;;;;;;;;;;5039292;28;20427;-86
2022/05/16 09:21:48;;;;;;;23.87;4.77;;;;;;;;;;5041937;28;20450;-84
2022/05/16 09:24:25;;;;;;;5.72;2.35;;;;;;;;;;5021771;28;20848;-84
2022/05/16 09:26:57;;;;;;;6.95;2.35;;;;;;;;;;5039726;28;20377;-83
2022/05/16 09:29:32;;;;;;;6.00;2.40;;;;;;;;;;5039166;28;20459;-87
2022/05/16 09:32:04;;;;;;;18.17;3.40;;;;;;;;;;5053014;28;20899;-85
2022/05/16 09:34:32;;;;;;;7.65;2.60;;;;;;;;;;5038575;28;20408;-83
2022/05/16 09:36:58;;;;;;;7.18;2.50;;;;;;;;;;5022779;28;20917;-85
2022/05/16 09:39:25;;;;;;;7.03;2.75;;;;;;;;;;5038524;28;20409;-85
2022/05/16 09:42:03;;;;;;;5.60;2.60;;;;;;;;;;5041786;28;20909;-85
2022/05/16 09:44:31;;;;;;;14.80;3.40;;;24.50;80.10;;;;;;5026182;28;20375;-86
2022/05/16 09:47:24;;;;;;;6.00;2.40;;;24.60;79.30;;;;;;5040466;28;20389;-85
2022/05/16 09:50:02;;;;;;;5.35;2.30;;;24.30;75.90;;;;;;5060313;28;20376;-84
2022/05/16 09:52:30;;;;;;;6.05;2.50;;;24.30;77.20;;;;;;5055083;28;20431;-82
2022/05/16 09:55:24;;;;;;;6.40;2.60;;;24.50;78.90;;;;;;5049524;28;20373;-84
2022/05/16 09:57:56;;;;;;;6.60;2.38;;;24.70;78.00;;;;;;5026359;28;20400;-82
2022/05/16 10:00:38;;;;;;;4.93;2.38;;;24.90;78.60;;;;;;5047905;28;20396;-83
2022/05/16 10:03:28;;;;;;;16.27;3.20;;;24.90;77.00;;;;;;5036527;28;20379;-85
2022/05/16 10:05:57;;;;;;;4.75;2.20;;;24.90;77.30;;;;;;5034533;28;20488;-83
2022/05/16 10:08:32;;;;;;;5.95;2.10;;;24.90;76.60;;;;;;5038497;28;20379;-84
2022/05/16 10:11:00;;;;;;;13.23;3.13;;;25.10;78.60;;;;;;5041556;28;20376;-85
2022/05/16 10:13:26;;;;;;;7.47;2.47;;;25.00;75.60;;;;;;5041184;28;20411;-87
2022/05/16 10:15:56;;;;;;;5.15;2.30;;;25.00;74.30;;;;;;5038411;28;20374;-87
2022/05/16 10:18:27;;;;;;;10.80;3.17;;;24.80;76.70;;;;;;5025903;28;20399;-87
2022/05/16 10:20:58;;;;;;;6.57;2.28;;;24.80;75.00;;;;;;5042236;28;20445;-85
2022/05/16 10:23:32;;;;;;;9.45;2.85;;;24.90;76.70;;;;;;5039267;28;20395;-85
2022/05/16 10:26:03;;;;;;;5.60;2.45;;;25.00;75.30;;;;;;5040792;28;20364;-87
2022/05/16 10:28:35;;;;;;;73.85;8.55;;;25.20;76.00;;;;;;5024556;28;20924;-83
2022/05/16 10:33:50;;;;;;;20.35;3.83;;;25.20;74.70;;;;;;5041017;28;20757;-85
2022/05/16 10:36:25;;;;;;;5.20;2.20;;;24.70;73.50;;;;;;5029778;28;20529;-87
2022/05/16 10:39:03;;;;;;;8.45;2.70;;;24.50;75.40;;;;;;5044015;28;20390;-84
2022/05/16 10:41:40;;;;;;;4.85;2.10;;;24.50;77.30;;;;;;5043555;28;20888;-86
2022/05/16 10:44:25;;;;;;;4.70;2.03;;;24.70;73.50;;;;;;5042761;28;20394;-84
2022/05/16 10:47:03;;;;;;;7.40;2.40;;;24.60;76.70;;;;;;5041388;28;20391;-85
2022/05/16 10:49:52;;;;;;;5.87;2.30;;;24.60;75.00;;;;;;5043578;28;20946;-87
2022/05/16 10:52:40;;;;;;;4.40;2.30;;;24.50;73.70;;;;;;5057398;28;20476;-85
2022/05/16 10:55:06;;;;;;;6.13;2.30;;;24.60;72.30;;;;;;5024339;28;20778;-89
2022/05/16 10:57:52;;;;;;;7.43;1.90;;;24.50;73.80;;;;;;5046818;28;20398;-86
2022/05/16 11:00:20;;;;;;;4.30;2.10;;;24.50;73.70;;;;;;5043300;28;20371;-84
2022/05/16 11:03:11;;;;;;;6.22;2.42;;;24.80;75.00;;;;;;5026354;28;20423;-86
2022/05/16 11:06:00;;;;;;;6.18;2.50;;;24.80;72.40;;;;;;5025544;28;20370;-85
2022/05/16 11:08:35;;;;;;;9.50;3.10;;;24.90;70.80;;;;;;5043430;28;20555;-84
2022/05/16 11:11:19;;;;;;;6.23;2.10;;;24.90;72.60;;;;;;5042704;28;20448;-83
2022/05/16 11:13:55;;;;;;;3.60;1.85;;;25.00;72.50;;;;;;5025180;28;20413;-87
2022/05/16 11:16:32;;;;;;;39.92;5.07;;;25.10;71.00;;;;;;5027989;28;20387;-86
2022/05/16 11:19:26;;;;;;;3.75;2.17;;;24.90;70.30;;;;;;5044327;28;20381;-84
2022/05/16 11:21:56;;;;;;;15.93;3.15;;;24.80;69.30;;;;;;5024785;28;20373;-86
2022/05/16 11:24:49;;;;;;;7.43;2.20;;;24.70;72.90;;;;;;5043137;28;20739;-88
2022/05/16 11:27:33;;;;;;;7.05;2.42;;;24.80;72.90;;;;;;5046539;28;20396;-83
2022/05/16 11:30:09;;;;;;;18.58;2.80;;;24.70;72.70;;;;;;5046933;28;20380;-85
2022/05/16 11:33:01;;;;;;;8.80;2.38;;;24.80;70.60;;;;;;5041707;28;20383;-84
2022/05/16 11:35:46;;;;;;;7.40;2.38;;;24.80;72.80;;;;;;5028073;28;20826;-85
2022/05/16 11:38:22;;;;;;;9.77;2.25;;;24.90;74.20;;;;;;5024620;28;20403;-82
2022/05/16 11:41:13;;;;;;;5.15;2.30;;;25.00;71.70;;;;;;5043931;28;20395;-86
2022/05/16 11:43:44;;;;;;;10.13;2.65;;;25.00;70.80;;;;;;5043356;28;20389;-87
2022/05/16 11:46:36;;;;;;;6.87;2.70;;;24.90;69.40;;;;;;5040896;28;20941;-85
2022/05/16 11:49:02;;;;;;;7.35;2.17;;;24.80;70.90;;;;;;4996011;28;20378;-86
2022/05/16 11:51:30;;;;;;;16.30;3.00;;;24.80;71.70;;;;;;5024267;28;20372;-85
2022/05/16 11:54:01;;;;;;;21.63;2.78;;;24.70;72.70;;;;;;5042580;28;20384;-86
2022/05/16 12:02:27;;;;;;;5.00;1.80;;;24.30;73.10;;;;;;5042647;28;20893;-85
2022/05/16 12:05:02;;;;;;;7.95;2.30;;;24.50;69.20;;;;;;5025522;28;20392;-84
2022/05/16 12:07:38;;;;;;;6.95;2.25;;;24.60;71.10;;;;;;5055871;28;20711;-85
2022/05/16 12:10:25;;;;;;;9.82;2.80;;;24.80;70.20;;;;;;5025103;28;20380;-85
2022/05/16 12:13:18;;;;;;;9.52;2.25;;;24.90;68.00;;;;;;5025030;28;20398;-86
2022/05/16 12:15:46;;;;;;;58.88;7.22;;;24.90;69.90;;;;;;5043808;28;20379;-86
2022/05/16 12:18:32;;;;;;;7.57;2.33;;;24.80;69.00;;;;;;5051340;28;20482;-83
2022/05/16 12:20:58;;;;;;;4.30;2.22;;;24.90;71.70;;;;;;5044761;28;20376;-85
2022/05/16 12:23:52;;;;;;;3.97;2.00;;;25.10;68.00;;;;;;5048231;28;20871;-85
2022/05/16 12:26:39;;;;;;;6.07;2.17;;;25.10;67.70;;;;;;5012622;28;20378;-85
2022/05/16 12:29:08;;;;;;;6.03;2.13;;;25.10;67.90;;;;;;4993315;28;20370;-86
2022/05/16 12:32:00;;;;;;;5.40;1.90;;;25.10;69.30;;;;;;5039425;28;20376;-87
2022/05/16 12:34:49;;;;;;;5.32;2.30;;;25.20;69.60;;;;;;5048826;28;20391;-90
2022/05/16 12:37:19;;;;;;;3.78;1.80;;;25.20;69.00;;;;;;5034389;28;20734;-83
2022/05/16 12:40:05;;;;;;;4.13;2.08;;;25.20;68.40;;;;;;5052591;28;20411;-86
2022/05/16 12:42:52;;;;;;;10.55;2.60;;;25.30;66.00;;;;;;5032711;28;20386;-86
2022/05/16 12:45:52;;;;;;;5.05;2.00;;;25.20;68.10;;;;;;5053316;28;20387;-87
2022/05/16 12:49:02;;;;;;;5.63;2.22;;;25.50;68.90;;;;;;5033390;28;20775;-86
2022/05/16 12:51:50;;;;;;;7.53;2.45;;;25.40;66.90;;;;;;5034729;28;20782;-86
2022/05/16 12:54:33;;;;;;;4.60;2.22;;;25.40;68.00;;;;;;5028189;28;20746;-85
2022/05/16 12:57:06;;;;;;;5.05;2.20;;;25.50;67.50;;;;;;5013170;28;20362;-86
2022/05/16 12:59:51;;;;;;;4.10;2.08;;;25.50;68.70;;;;;;5046198;28;20410;-87
2022/05/16 13:02:45;;;;;;;5.25;2.20;;;25.50;65.50;;;;;;5051572;28;20440;-86
2022/05/16 13:05:22;;;;;;;5.37;2.00;;;25.50;67.00;;;;;;5023067;28;20403;-85
2022/05/16 13:08:09;;;;;;;4.97;2.08;;;25.50;66.10;;;;;;5034616;28;20386;-84
2022/05/16 13:11:02;;;;;;;6.50;2.50;;;25.50;66.40;;;;;;5035810;28;20719;-85
2022/05/16 13:14:12;;;;;;;13.55;3.30;;;25.50;65.80;;;;;;5035658;28;20413;-85
2022/05/16 13:16:49;;;;;;;4.85;1.83;;;25.40;66.10;;;;;;5034348;28;20426;-87
2022/05/16 13:19:17;;;;;;;4.50;1.95;;;25.50;65.90;;;;;;5051468;28;20415;-86
2022/05/16 13:21:51;;;;;;;9.32;2.55;;;25.60;65.00;;;;;;5050552;28;20852;-88
2022/05/16 13:24:20;;;;;;;4.90;2.30;;;25.50;64.70;;;;;;5033561;28;20383;-86
2022/05/16 13:29:34;;;;;;;5.28;2.28;;;25.50;66.10;;;;;;5050767;28;20430;-85
2022/05/16 13:32:09;;;;;;;7.40;2.60;;;25.70;64.90;;;;;;5051600;28;20407;-87
2022/05/16 13:34:55;;;;;;;6.25;2.13;;;25.60;65.30;;;;;;5032748;28;20888;-83
2022/05/16 13:37:40;;;;;;;7.55;2.20;;;25.50;66.00;;;;;;5032389;28;20410;-87
2022/05/16 13:40:09;;;;;;;4.53;2.05;;;25.50;66.10;;;;;;5032664;28;20901;-85
2022/05/16 13:42:37;;;;;;;6.00;2.37;;;25.60;67.00;;;;;;5032872;28;20950;-86
2022/05/16 13:45:07;;;;;;;22.08;3.45;;;25.60;64.10;;;;;;5032944;28;20384;-84
2022/05/16 13:47:33;;;;;;;4.50;2.00;;;25.60;66.60;;;;;;5054027;28;20474;-84
2022/05/16 13:49:59;;;;;;;4.37;2.03;;;25.70;65.90;;;;;;5033776;28;20503;-86
2022/05/16 13:52:38;;;;;;;57.28;7.85;;;25.60;65.00;;;;;;5033922;28;20445;-84
2022/05/16 13:55:09;;;;;;;8.05;2.63;;;25.50;67.40;;;;;;5052758;28;20430;-87
2022/05/16 13:57:35;;;;;;;4.25;2.00;;;25.50;65.60;;;;;;5052505;28;20441;-85
2022/05/16 14:00:10;;;;;;;9.63;2.60;;;25.60;65.70;;;;;;5033658;28;20608;-90
2022/05/16 14:02:36;;;;;;;15.63;3.47;;;25.70;67.50;;;;;;5034550;28;20372;-87
2022/05/16 14:05:28;;;;;;;5.60;2.22;;;25.80;66.60;;;;;;5051295;28;20905;-85
2022/05/16 14:07:55;;;;;;;3.47;1.92;;;25.90;65.80;;;;;;5027265;28;20480;-89
2022/05/16 14:10:23;;;;;;;39.08;5.57;;;25.80;65.10;;;;;;5037283;28;20377;-86
2022/05/16 14:12:53;;;;;;;5.82;2.50;;;25.90;65.10;;;;;;5018697;28;20853;-88
2022/05/16 14:15:43;;;;;;;4.90;2.13;;;25.90;65.00;;;;;;5037303;28;20405;-88
2022/05/16 14:18:12;;;;;;;41.42;6.07;;;26.00;63.90;;;;;;5039205;28;20974;-86
2022/05/16 14:20:48;;;;;;;73.53;9.20;;;26.00;65.90;;;;;;5057941;28;20427;-88